Terminal Aerodrome Forecast
Issued by NWS Wakefield, VA

Home | Current Version | Previous Version | Text Only | Print | Product List | Glossary On
Versions: 1 2 3 4 5 6 7 8 9 10 11 12 13
000
FTUS41 KAKQ 251134
TAFRIC
TAF
KRIC 251134Z 2512/2612 20004KT P6SM SCT035
     FM251700 20007KT P6SM BKN050
     FM252300 18006KT P6SM SCT060=

USA.gov is the U.S. government's official web portal to all federal, state and local government web resources and services.